Time,TemperatureF,DewpointF,PressureIn,WindDirection,WindDirectionDegrees,WindSpeedMPH,WindSpeedGustMPH,Humidity,HourlyPrecipIn,Conditions,Clouds,dailyrainin,SoftwareType,DateUTC
2013-05-11 00:05:00,52.5,45.2,29.75,East,101,0.0,1.0,76,0.00,,,0.00,Wunderground v.1.15,2013-05-11 05:05:00,
2013-05-11 00:10:00,52.5,44.4,29.75,ESE,103,0.0,1.0,74,0.00,,,0.00,Wunderground v.1.15,2013-05-11 05:10:00,
2013-05-11 00:15:00,52.6,44.5,29.74,ESE,103,0.0,1.0,74,0.00,,,0.00,Wunderground v.1.15,2013-05-11 05:15:00,
2013-05-11 00:20:00,52.6,43.8,29.75,SSE,153,0.0,1.0,72,0.00,,,0.00,Wunderground v.1.15,2013-05-11 05:20:00,
2013-05-11 00:25:00,52.8,43.3,29.74,SSE,152,0.0,1.0,70,0.00,,,0.00,Wunderground v.1.15,2013-05-11 05:25:00,
2013-05-11 00:30:00,53.0,43.8,29.74,SSW,198,0.0,1.0,71,0.00,,,0.00,Wunderground v.1.15,2013-05-11 05:30:00,
2013-05-11 00:35:00,53.3,44.9,29.74,WSW,245,0.0,1.0,73,0.00,,,0.00,Wunderground v.1.15,2013-05-11 05:35:00,
2013-05-11 00:40:00,53.2,43.3,29.74,WSW,242,1.0,1.0,69,0.00,,,0.00,Wunderground v.1.15,2013-05-11 05:40:00,
2013-05-11 00:45:00,53.2,42.9,29.75,West,270,1.0,1.0,68,0.00,,,0.00,Wunderground v.1.15,2013-05-11 05:45:00,
2013-05-11 00:50:00,53.3,41.4,29.75,WSW,256,1.0,1.0,64,0.00,,,0.00,Wunderground v.1.15,2013-05-11 05:50:00,
2013-05-11 00:56:00,53.6,40.5,29.75,West,266,1.0,2.0,61,0.00,,,0.00,Wunderground v.1.15,2013-05-11 05:56:00,
2013-05-11 01:01:00,54.1,41.4,29.75,WSW,250,3.0,3.0,62,0.00,,,0.00,Wunderground v.1.15,2013-05-11 06:01:00,
2013-05-11 01:06:00,54.7,42.3,29.75,West,261,4.0,6.0,63,0.00,,,0.00,Wunderground v.1.15,2013-05-11 06:06:00,
2013-05-11 01:11:00,54.6,42.3,29.75,WNW,284,4.0,6.0,63,0.00,,,0.00,Wunderground v.1.15,2013-05-11 06:11:00,
2013-05-11 01:16:00,54.5,42.6,29.75,WNW,287,3.0,6.0,64,0.00,,,0.00,Wunderground v.1.15,2013-05-11 06:16:00,
2013-05-11 01:22:00,54.5,42.6,29.76,NW,311,3.0,8.0,64,0.00,,,0.00,Wunderground v.1.15,2013-05-11 06:22:00,
2013-05-11 01:27:00,53.9,42.4,29.77,NW,318,5.0,8.0,65,0.00,,,0.00,Wunderground v.1.15,2013-05-11 06:27:00,
2013-05-11 01:32:00,52.9,41.4,29.77,NNW,327,4.0,5.0,65,0.00,,,0.00,Wunderground v.1.15,2013-05-11 06:32:00,
2013-05-11 01:37:00,52.2,41.2,29.78,NNE,12,4.0,6.0,66,0.00,,,0.00,Wunderground v.1.15,2013-05-11 06:37:00,
2013-05-11 01:42:00,51.6,41.0,29.78,North,11,4.0,5.0,67,0.00,,,0.00,Wunderground v.1.15,2013-05-11 06:42:00,
2013-05-11 01:47:00,51.1,40.5,29.79,NW,317,4.0,11.0,67,0.00,,,0.00,Wunderground v.1.15,2013-05-11 06:47:00,
2013-05-11 01:53:00,50.9,40.3,29.79,North,351,5.0,6.0,67,0.00,,,0.00,Wunderground v.1.15,2013-05-11 06:53:00,
2013-05-11 01:58:00,50.6,40.4,29.80,NNW,336,4.0,6.0,68,0.00,,,0.00,Wunderground v.1.15,2013-05-11 06:58:00,
2013-05-11 02:03:00,50.4,40.6,29.80,NNW,330,3.0,5.0,69,0.00,,,0.00,Wunderground v.1.15,2013-05-11 07:03:00,
2013-05-11 02:08:00,50.1,40.3,29.80,NNW,342,3.0,5.0,69,0.00,,,0.00,Wunderground v.1.15,2013-05-11 07:08:00,
2013-05-11 02:13:00,50.0,40.2,29.81,NW,324,3.0,7.0,69,0.00,,,0.00,Wunderground v.1.15,2013-05-11 07:13:00,
2013-05-11 02:19:00,49.8,40.0,29.81,NNE,30,3.0,7.0,69,0.00,,,0.00,Wunderground v.1.15,2013-05-11 07:19:00,
2013-05-11 02:24:00,49.6,39.8,29.82,NNW,340,3.0,13.0,69,0.00,,,0.00,Wunderground v.1.15,2013-05-11 07:24:00,
2013-05-11 02:29:00,49.3,39.9,29.82,NE,40,3.0,13.0,70,0.00,,,0.00,Wunderground v.1.15,2013-05-11 07:29:00,
2013-05-11 02:34:00,49.2,40.2,29.82,NW,325,2.0,4.0,71,0.00,,,0.00,Wunderground v.1.15,2013-05-11 07:34:00,
2013-05-11 02:39:00,48.9,39.9,29.82,NNW,345,3.0,4.0,71,0.00,,,0.00,Wunderground v.1.15,2013-05-11 07:39:00,
2013-05-11 02:45:00,48.6,40.0,29.82,NNE,15,2.0,2.0,72,0.00,,,0.00,Wunderground v.1.15,2013-05-11 07:45:00,
2013-05-11 02:50:00,48.3,39.3,29.83,NE,45,2.0,3.0,71,0.00,,,0.00,Wunderground v.1.15,2013-05-11 07:50:00,
2013-05-11 02:55:00,48.1,38.8,29.83,NE,37,3.0,4.0,70,0.00,,,0.00,Wunderground v.1.15,2013-05-11 07:55:00,
2013-05-11 03:00:00,48.0,37.9,29.83,NNW,345,3.0,4.0,68,0.00,,,0.00,Wunderground v.1.15,2013-05-11 08:00:00,
2013-05-11 03:05:00,47.8,37.4,29.83,North,354,4.0,5.0,67,0.00,,,0.00,Wunderground v.1.15,2013-05-11 08:05:00,
2013-05-11 03:11:00,47.5,37.5,29.84,North,11,4.0,4.0,68,0.00,,,0.00,Wunderground v.1.15,2013-05-11 08:11:00,
2013-05-11 03:16:00,47.3,37.6,29.84,ENE,63,3.0,6.0,69,0.00,,,0.00,Wunderground v.1.15,2013-05-11 08:16:00,
2013-05-11 03:21:00,47.1,37.8,29.84,NNW,342,3.0,3.0,70,0.00,,,0.00,Wunderground v.1.15,2013-05-11 08:21:00,
2013-05-11 03:26:00,46.8,37.5,29.84,North,355,2.0,3.0,70,0.00,,,0.00,Wunderground v.1.15,2013-05-11 08:26:00,
2013-05-11 03:31:00,46.6,37.0,29.85,NW,304,2.0,11.0,69,0.00,,,0.00,Wunderground v.1.15,2013-05-11 08:31:00,
2013-05-11 03:37:00,46.5,35.4,29.85,NNW,339,3.0,11.0,65,0.00,,,0.00,Wunderground v.1.15,2013-05-11 08:37:00,
2013-05-11 03:42:00,46.4,34.5,29.85,West,276,3.0,4.0,63,0.00,,,0.00,Wunderground v.1.15,2013-05-11 08:42:00,
2013-05-11 03:47:00,46.2,35.1,29.85,WNW,290,2.0,4.0,65,0.00,,,0.00,Wunderground v.1.15,2013-05-11 08:47:00,
2013-05-11 03:52:00,45.9,35.2,29.86,WNW,294,2.0,5.0,66,0.00,,,0.00,Wunderground v.1.15,2013-05-11 08:52:00,
2013-05-11 03:57:00,45.7,34.6,29.86,NW,315,3.0,5.0,65,0.00,,,0.00,Wunderground v.1.15,2013-05-11 08:57:00,
2013-05-11 04:03:00,45.4,34.7,29.86,NW,308,3.0,5.0,66,0.00,,,0.00,Wunderground v.1.15,2013-05-11 09:03:00,
2013-05-11 04:08:00,45.2,34.1,29.87,NW,324,2.0,5.0,65,0.00,,,0.00,Wunderground v.1.15,2013-05-11 09:08:00,
2013-05-11 04:13:00,45.0,33.5,29.87,ENE,60,3.0,6.0,64,0.00,,,0.00,Wunderground v.1.15,2013-05-11 09:13:00,
2013-05-11 04:18:00,44.7,32.5,29.88,West,262,3.0,6.0,62,0.00,,,0.00,Wunderground v.1.15,2013-05-11 09:18:00,
2013-05-11 04:23:00,44.4,31.0,29.88,ENE,77,3.0,3.0,59,0.00,,,0.00,Wunderground v.1.15,2013-05-11 09:23:00,
2013-05-11 04:28:00,44.0,29.7,29.88,NE,48,3.0,3.0,57,0.00,,,0.00,Wunderground v.1.15,2013-05-11 09:28:00,
2013-05-11 04:33:00,43.8,30.0,29.88,NNE,16,2.0,4.0,58,0.00,,,0.00,Wunderground v.1.15,2013-05-11 09:33:00,
2013-05-11 04:38:00,43.7,29.9,29.88,NNW,330,3.0,4.0,58,0.00,,,0.00,Wunderground v.1.15,2013-05-11 09:38:00,
2013-05-11 04:43:00,43.5,30.1,29.88,North,360,3.0,3.0,59,0.00,,,0.00,Wunderground v.1.15,2013-05-11 09:43:00,
2013-05-11 04:48:00,43.2,30.2,29.88,NNW,341,3.0,4.0,60,0.00,,,0.00,Wunderground v.1.15,2013-05-11 09:48:00,
2013-05-11 04:54:00,43.1,30.6,29.89,North,349,3.0,4.0,61,0.00,,,0.00,Wunderground v.1.15,2013-05-11 09:54:00,
2013-05-11 04:59:00,42.8,30.3,29.89,North,358,2.0,4.0,61,0.00,,,0.00,Wunderground v.1.15,2013-05-11 09:59:00,
2013-05-11 05:04:00,42.6,30.5,29.89,NW,308,2.0,2.0,62,0.00,,,0.00,Wunderground v.1.15,2013-05-11 10:04:00,
2013-05-11 05:09:00,42.3,30.6,29.89,NE,36,2.0,4.0,63,0.00,,,0.00,Wunderground v.1.15,2013-05-11 10:09:00,
2013-05-11 05:14:00,42.1,31.2,29.89,NW,315,1.0,2.0,65,0.00,,,0.00,Wunderground v.1.15,2013-05-11 10:14:00,
2013-05-11 05:19:00,42.0,31.1,29.89,NW,325,1.0,2.0,65,0.00,,,0.00,Wunderground v.1.15,2013-05-11 10:19:00,
2013-05-11 05:25:00,41.9,31.4,29.89,West,277,2.0,3.0,66,0.00,,,0.00,Wunderground v.1.15,2013-05-11 10:25:00,
2013-05-11 05:30:00,41.9,31.4,29.89,NNW,329,2.0,2.0,66,0.00,,,0.00,Wunderground v.1.15,2013-05-11 10:30:00,
2013-05-11 05:35:00,41.9,31.0,29.90,North,349,2.0,7.0,65,0.00,,,0.00,Wunderground v.1.15,2013-05-11 10:35:00,
2013-05-11 05:40:00,41.8,30.9,29.90,NW,324,2.0,3.0,65,0.00,,,0.00,Wunderground v.1.15,2013-05-11 10:40:00,
2013-05-11 05:45:00,41.8,30.9,29.90,NNW,335,2.0,6.0,65,0.00,,,0.00,Wunderground v.1.15,2013-05-11 10:45:00,
2013-05-11 05:51:00,41.7,31.2,29.91,NNW,335,2.0,2.0,66,0.00,,,0.00,Wunderground v.1.15,2013-05-11 10:51:00,
2013-05-11 05:56:00,41.6,31.1,29.91,NNW,340,2.0,5.0,66,0.00,,,0.00,Wunderground v.1.15,2013-05-11 10:56:00,
2013-05-11 06:01:00,41.6,31.1,29.91,NNW,342,3.0,3.0,66,0.00,,,0.00,Wunderground v.1.15,2013-05-11 11:01:00,
2013-05-11 06:06:00,41.5,31.0,29.91,NW,319,2.0,3.0,66,0.00,,,0.00,Wunderground v.1.15,2013-05-11 11:06:00,
2013-05-11 06:11:00,41.3,30.8,29.91,NW,310,2.0,4.0,66,0.00,,,0.00,Wunderground v.1.15,2013-05-11 11:11:00,
2013-05-11 06:17:00,41.3,30.8,29.92,SE,127,2.0,4.0,66,0.00,,,0.00,Wunderground v.1.15,2013-05-11 11:17:00,
2013-05-11 06:22:00,41.3,30.4,29.92,NNW,342,2.0,2.0,65,0.00,,,0.00,Wunderground v.1.15,2013-05-11 11:22:00,
2013-05-11 06:27:00,41.4,30.5,29.92,North,355,2.0,3.0,65,0.00,,,0.00,Wunderground v.1.15,2013-05-11 11:27:00,
2013-05-11 06:32:00,41.4,30.1,29.92,NW,307,2.0,6.0,64,0.00,,,0.00,Wunderground v.1.15,2013-05-11 11:32:00,
2013-05-11 06:37:00,41.4,30.1,29.92,NW,315,2.0,6.0,64,0.00,,,0.00,Wunderground v.1.15,2013-05-11 11:37:00,
2013-05-11 06:43:00,41.5,30.6,29.92,NW,309,2.0,4.0,65,0.00,,,0.00,Wunderground v.1.15,2013-05-11 11:43:00,
2013-05-11 06:48:00,41.6,30.3,29.93,North,5,2.0,4.0,64,0.00,,,0.00,Wunderground v.1.15,2013-05-11 11:48:00,
2013-05-11 06:53:00,41.7,30.4,29.93,NW,325,3.0,5.0,64,0.00,,,0.00,Wunderground v.1.15,2013-05-11 11:53:00,
2013-05-11 06:58:00,41.8,29.7,29.93,NNW,342,4.0,9.0,62,0.00,,,0.00,Wunderground v.1.15,2013-05-11 11:58:00,
2013-05-11 07:03:00,41.8,30.1,29.93,NNW,342,4.0,5.0,63,0.00,,,0.00,Wunderground v.1.15,2013-05-11 12:03:00,
2013-05-11 07:09:00,41.9,30.6,29.93,SSE,160,2.0,6.0,64,0.00,,,0.00,Wunderground v.1.15,2013-05-11 12:09:00,
2013-05-11 07:14:00,42.1,30.8,29.94,NW,324,2.0,4.0,64,0.00,,,0.00,Wunderground v.1.15,2013-05-11 12:14:00,
2013-05-11 07:19:00,42.3,30.6,29.94,NW,322,2.0,4.0,63,0.00,,,0.00,Wunderground v.1.15,2013-05-11 12:19:00,
2013-05-11 07:24:00,42.5,30.8,29.94,North,350,2.0,3.0,63,0.00,,,0.00,Wunderground v.1.15,2013-05-11 12:24:00,
2013-05-11 07:29:00,42.6,30.5,29.94,NNW,342,3.0,5.0,62,0.00,,,0.00,Wunderground v.1.15,2013-05-11 12:29:00,
2013-05-11 07:35:00,42.9,30.8,29.94,NNW,337,3.0,4.0,62,0.00,,,0.00,Wunderground v.1.15,2013-05-11 12:35:00,
2013-05-11 07:40:00,43.1,30.6,29.94,NNW,342,3.0,3.0,61,0.00,,,0.00,Wunderground v.1.15,2013-05-11 12:40:00,
2013-05-11 07:45:00,43.1,31.4,29.94,NNE,29,2.0,3.0,63,0.00,,,0.00,Wunderground v.1.15,2013-05-11 12:45:00,
2013-05-11 07:50:00,43.3,31.1,29.94,West,279,2.0,5.0,62,0.00,,,0.00,Wunderground v.1.15,2013-05-11 12:50:00,
2013-05-11 07:55:00,43.5,30.9,29.94,WNW,301,2.0,6.0,61,0.00,,,0.00,Wunderground v.1.15,2013-05-11 12:55:00,
2013-05-11 08:00:00,43.5,30.9,29.94,NW,320,3.0,8.0,61,0.00,,,0.00,Wunderground v.1.15,2013-05-11 13:00:00,
2013-05-11 08:05:00,43.2,30.2,29.94,North,5,4.0,8.0,60,0.00,,,0.00,Wunderground v.1.15,2013-05-11 13:05:00,
2013-05-11 08:10:00,43.4,30.8,29.95,NNW,342,4.0,4.0,61,0.00,,,0.00,Wunderground v.1.15,2013-05-11 13:10:00,
2013-05-11 08:16:00,43.7,31.5,29.95,North,6,3.0,4.0,62,0.00,,,0.00,Wunderground v.1.15,2013-05-11 13:16:00,
2013-05-11 08:21:00,44.1,31.1,29.95,WNW,298,3.0,5.0,60,0.00,,,0.00,Wunderground v.1.15,2013-05-11 13:21:00,
2013-05-11 08:26:00,43.9,30.9,29.95,NW,317,3.0,6.0,60,0.00,,,0.00,Wunderground v.1.15,2013-05-11 13:26:00,
2013-05-11 08:31:00,43.7,30.7,29.95,NNE,26,4.0,5.0,60,0.00,,,0.00,Wunderground v.1.15,2013-05-11 13:31:00,
2013-05-11 08:36:00,43.6,30.2,29.95,NNE,19,4.0,5.0,59,0.00,,,0.00,Wunderground v.1.15,2013-05-11 13:36:00,
2013-05-11 08:41:00,43.4,30.0,29.95,ENE,57,4.0,5.0,59,0.00,,,0.00,Wunderground v.1.15,2013-05-11 13:41:00,
2013-05-11 08:46:00,43.6,30.6,29.96,NW,304,4.0,5.0,60,0.00,,,0.00,Wunderground v.1.15,2013-05-11 13:46:00,
2013-05-11 08:52:00,43.7,30.7,29.96,NW,309,3.0,8.0,60,0.00,,,0.00,Wunderground v.1.15,2013-05-11 13:52:00,
2013-05-11 08:57:00,43.4,30.0,29.96,North,352,3.0,8.0,59,0.00,,,0.00,Wunderground v.1.15,2013-05-11 13:57:00,
2013-05-11 09:02:00,43.5,30.1,29.96,NW,315,3.0,6.0,59,0.00,,,0.00,Wunderground v.1.15,2013-05-11 14:02:00,
2013-05-11 09:07:00,43.5,30.5,29.96,North,1,3.0,6.0,60,0.00,,,0.00,Wunderground v.1.15,2013-05-11 14:07:00,
2013-05-11 09:12:00,43.7,30.7,29.96,NNE,33,3.0,4.0,60,0.00,,,0.00,Wunderground v.1.15,2013-05-11 14:12:00,
2013-05-11 09:18:00,44.2,31.2,29.96,NW,312,3.0,5.0,60,0.00,,,0.00,Wunderground v.1.15,2013-05-11 14:18:00,
2013-05-11 09:23:00,44.7,31.2,29.96,NNE,30,3.0,7.0,59,0.00,,,0.00,Wunderground v.1.15,2013-05-11 14:23:00,
2013-05-11 09:28:00,44.9,31.4,29.96,NNW,346,4.0,7.0,59,0.00,,,0.00,Wunderground v.1.15,2013-05-11 14:28:00,
2013-05-11 09:33:00,45.5,33.2,29.96,NNW,337,3.0,7.0,62,0.00,,,0.00,Wunderground v.1.15,2013-05-11 14:33:00,
2013-05-11 09:38:00,45.6,31.2,29.97,NW,312,3.0,7.0,57,0.00,,,0.00,Wunderground v.1.15,2013-05-11 14:38:00,
2013-05-11 09:43:00,44.7,30.4,29.97,NW,319,4.0,9.0,57,0.00,,,0.00,Wunderground v.1.15,2013-05-11 14:43:00,
2013-05-11 09:49:00,44.2,31.2,29.97,NNW,330,5.0,9.0,60,0.00,,,0.00,Wunderground v.1.15,2013-05-11 14:49:00,
2013-05-11 09:54:00,44.4,31.8,29.97,NW,316,4.0,7.0,61,0.00,,,0.00,Wunderground v.1.15,2013-05-11 14:54:00,
2013-05-11 09:59:00,44.8,30.9,29.96,NNW,347,4.0,7.0,58,0.00,,,0.00,Wunderground v.1.15,2013-05-11 14:59:00,
2013-05-11 10:04:00,45.0,31.5,29.96,NNW,344,4.0,4.0,59,0.00,,,0.00,Wunderground v.1.15,2013-05-11 15:04:00,
2013-05-11 10:09:00,46.0,32.9,29.96,WNW,301,3.0,6.0,60,0.00,,,0.00,Wunderground v.1.15,2013-05-11 15:09:00,
2013-05-11 10:15:00,46.3,31.4,29.96,WNW,283,3.0,4.0,56,0.00,,,0.00,Wunderground v.1.15,2013-05-11 15:15:00,
2013-05-11 10:20:00,45.7,31.3,29.96,NE,37,4.0,4.0,57,0.00,,,0.00,Wunderground v.1.15,2013-05-11 15:20:00,
2013-05-11 10:25:00,46.3,31.4,29.96,NNW,342,4.0,4.0,56,0.00,,,0.00,Wunderground v.1.15,2013-05-11 15:25:00,
2013-05-11 10:30:00,46.2,31.8,29.96,NW,307,3.0,8.0,57,0.00,,,0.00,Wunderground v.1.15,2013-05-11 15:30:00,
2013-05-11 10:35:00,46.4,32.0,29.96,West,266,4.0,8.0,57,0.00,,,0.00,Wunderground v.1.15,2013-05-11 15:35:00,
2013-05-11 10:41:00,45.6,30.8,29.97,NW,322,5.0,14.0,56,0.00,,,0.00,Wunderground v.1.15,2013-05-11 15:41:00,
2013-05-11 10:46:00,46.5,32.5,29.97,West,266,5.0,14.0,58,0.00,,,0.00,Wunderground v.1.15,2013-05-11 15:46:00,
2013-05-11 10:51:00,47.6,32.7,29.97,WNW,302,5.0,6.0,56,0.00,,,0.00,Wunderground v.1.15,2013-05-11 15:51:00,
2013-05-11 10:56:00,46.7,30.5,29.97,NW,307,5.0,8.0,53,0.00,,,0.00,Wunderground v.1.15,2013-05-11 15:56:00,
2013-05-11 11:01:00,46.2,31.4,29.97,NW,325,6.0,6.0,56,0.00,,,0.00,Wunderground v.1.15,2013-05-11 16:01:00,
2013-05-11 11:07:00,47.2,30.9,29.97,NNW,340,5.0,9.0,53,0.00,,,0.00,Wunderground v.1.15,2013-05-11 16:07:00,
2013-05-11 11:12:00,47.6,29.9,29.97,NNW,345,4.0,5.0,50,0.00,,,0.00,Wunderground v.1.15,2013-05-11 16:12:00,
2013-05-11 11:17:00,47.5,30.3,29.97,NNW,331,4.0,7.0,51,0.00,,,0.00,Wunderground v.1.15,2013-05-11 16:17:00,
2013-05-11 11:22:00,48.3,29.5,29.97,NW,309,4.0,11.0,48,0.00,,,0.00,Wunderground v.1.15,2013-05-11 16:22:00,
2013-05-11 11:27:00,48.5,28.6,29.97,NNW,340,4.0,11.0,46,0.00,,,0.00,Wunderground v.1.15,2013-05-11 16:27:00,
2013-05-11 11:33:00,48.1,29.8,29.97,NW,324,4.0,4.0,49,0.00,,,0.00,Wunderground v.1.15,2013-05-11 16:33:00,
2013-05-11 11:38:00,49.0,29.6,29.97,NW,316,4.0,7.0,47,0.00,,,0.00,Wunderground v.1.15,2013-05-11 16:38:00,
2013-05-11 11:43:00,49.1,29.2,29.97,WNW,288,4.0,7.0,46,0.00,,,0.00,Wunderground v.1.15,2013-05-11 16:43:00,
2013-05-11 11:48:00,49.2,28.7,29.97,WNW,301,5.0,7.0,45,0.00,,,0.00,Wunderground v.1.15,2013-05-11 16:48:00,
2013-05-11 11:53:00,49.4,26.7,29.97,WNW,297,5.0,6.0,41,0.00,,,0.00,Wunderground v.1.15,2013-05-11 16:53:00,
2013-05-11 11:58:00,49.3,24.7,29.97,NNW,336,6.0,12.0,38,0.00,,,0.00,Wunderground v.1.15,2013-05-11 16:58:00,
2013-05-11 12:03:00,48.7,24.2,29.97,NE,53,6.0,6.0,38,0.00,,,0.00,Wunderground v.1.15,2013-05-11 17:03:00,
2013-05-11 12:08:00,48.4,25.2,29.97,NNW,337,5.0,7.0,40,0.00,,,0.00,Wunderground v.1.15,2013-05-11 17:08:00,
2013-05-11 12:13:00,47.8,26.4,29.97,NW,309,4.0,6.0,43,0.00,,,0.00,Wunderground v.1.15,2013-05-11 17:13:00,
2013-05-11 12:18:00,48.8,27.8,29.97,NNW,330,4.0,6.0,44,0.00,,,0.00,Wunderground v.1.15,2013-05-11 17:18:00,
2013-05-11 12:24:00,50.6,27.1,29.97,NNW,342,4.0,4.0,40,0.00,,,0.00,Wunderground v.1.15,2013-05-11 17:24:00,
2013-05-11 12:29:00,50.6,26.5,29.97,NNW,332,3.0,6.0,39,0.00,,,0.00,Wunderground v.1.15,2013-05-11 17:29:00,
2013-05-11 12:34:00,50.0,24.7,29.97,NNW,328,5.0,7.0,37,0.00,,,0.00,Wunderground v.1.15,2013-05-11 17:34:00,
2013-05-11 12:39:00,50.2,26.8,29.97,NW,311,5.0,8.0,40,0.00,,,0.00,Wunderground v.1.15,2013-05-11 17:39:00,
2013-05-11 12:44:00,50.2,26.8,29.97,NW,326,5.0,8.0,40,0.00,,,0.00,Wunderground v.1.15,2013-05-11 17:44:00,
2013-05-11 12:50:00,50.4,27.0,29.97,NNW,328,5.0,12.0,40,0.00,,,0.00,Wunderground v.1.15,2013-05-11 17:50:00,
2013-05-11 12:55:00,51.2,22.3,29.96,NW,325,5.0,12.0,32,0.00,,,0.00,Wunderground v.1.15,2013-05-11 17:55:00,
2013-05-11 13:00:00,51.9,22.9,29.97,NNE,19,4.0,4.0,32,0.00,,,0.00,Wunderground v.1.15,2013-05-11 18:00:00,
2013-05-11 13:05:00,52.4,24.1,29.96,NW,311,4.0,7.0,33,0.00,,,0.00,Wunderground v.1.15,2013-05-11 18:05:00,
2013-05-11 13:10:00,52.5,25.6,29.96,WSW,237,5.0,5.0,35,0.00,,,0.00,Wunderground v.1.15,2013-05-11 18:10:00,
2013-05-11 13:15:00,51.7,24.2,29.97,NW,315,5.0,9.0,34,0.00,,,0.00,Wunderground v.1.15,2013-05-11 18:15:00,
2013-05-11 13:21:00,51.7,25.6,29.97,WNW,297,5.0,7.0,36,0.00,,,0.00,Wunderground v.1.15,2013-05-11 18:21:00,
2013-05-11 13:26:00,51.7,22.0,29.97,NNW,332,5.0,7.0,31,0.00,,,0.00,Wunderground v.1.15,2013-05-11 18:26:00,
2013-05-11 13:31:00,51.5,24.0,29.97,NNE,29,6.0,6.0,34,0.00,,,0.00,Wunderground v.1.15,2013-05-11 18:31:00,
2013-05-11 13:36:00,51.7,24.9,29.97,NNW,331,4.0,8.0,35,0.00,,,0.00,Wunderground v.1.15,2013-05-11 18:36:00,
2013-05-11 13:41:00,51.5,24.0,29.97,NW,304,4.0,6.0,34,0.00,,,0.00,Wunderground v.1.15,2013-05-11 18:41:00,
2013-05-11 13:47:00,51.8,22.8,29.97,North,7,4.0,12.0,32,0.00,,,0.00,Wunderground v.1.15,2013-05-11 18:47:00,
2013-05-11 13:52:00,51.8,23.6,29.97,WNW,296,4.0,5.0,33,0.00,,,0.00,Wunderground v.1.15,2013-05-11 18:52:00,
2013-05-11 13:57:00,52.1,19.1,29.97,WNW,284,5.0,10.0,27,0.00,,,0.00,Wunderground v.1.15,2013-05-11 18:57:00,
2013-05-11 14:02:00,51.7,24.2,29.97,NNE,18,6.0,10.0,34,0.00,,,0.00,Wunderground v.1.15,2013-05-11 19:02:00,
2013-05-11 14:07:00,51.7,22.8,29.97,NNW,328,5.0,10.0,32,0.00,,,0.00,Wunderground v.1.15,2013-05-11 19:07:00,
2013-05-11 14:13:00,51.4,23.2,29.97,NNW,331,5.0,10.0,33,0.00,,,0.00,Wunderground v.1.15,2013-05-11 19:13:00,
2013-05-11 14:18:00,51.5,21.0,29.97,NW,315,6.0,11.0,30,0.00,,,0.00,Wunderground v.1.15,2013-05-11 19:18:00,
2013-05-11 14:23:00,51.4,22.5,29.98,WNW,302,6.0,12.0,32,0.00,,,0.00,Wunderground v.1.15,2013-05-11 19:23:00,
2013-05-11 14:28:00,51.4,23.9,29.97,NNW,327,5.0,12.0,34,0.00,,,0.00,Wunderground v.1.15,2013-05-11 19:28:00,
2013-05-11 14:33:00,51.5,26.1,29.98,WSW,253,6.0,8.0,37,0.00,,,0.00,Wunderground v.1.15,2013-05-11 19:33:00,
2013-05-11 14:39:00,52.1,24.6,29.98,NW,318,6.0,8.0,34,0.00,,,0.00,Wunderground v.1.15,2013-05-11 19:39:00,
2013-05-11 14:44:00,50.9,24.2,29.98,WNW,302,5.0,9.0,35,0.00,,,0.00,Wunderground v.1.15,2013-05-11 19:44:00,
2013-05-11 14:49:00,51.0,25.6,29.98,NW,311,6.0,9.0,37,0.00,,,0.00,Wunderground v.1.15,2013-05-11 19:49:00,
2013-05-11 14:54:00,51.3,25.9,29.98,NNW,345,5.0,6.0,37,0.00,,,0.00,Wunderground v.1.15,2013-05-11 19:54:00,
2013-05-11 14:59:00,51.5,24.7,29.98,WNW,297,5.0,9.0,35,0.00,,,0.00,Wunderground v.1.15,2013-05-11 19:59:00,
2013-05-11 15:05:00,51.3,25.9,29.98,NE,43,5.0,8.0,37,0.00,,,0.00,Wunderground v.1.15,2013-05-11 20:05:00,
2013-05-11 15:10:00,51.0,25.0,29.99,WNW,295,6.0,6.0,36,0.00,,,0.00,Wunderground v.1.15,2013-05-11 20:10:00,
2013-05-11 15:15:00,50.3,25.6,29.98,WNW,293,6.0,8.0,38,0.00,,,0.00,Wunderground v.1.15,2013-05-11 20:15:00,
2013-05-11 15:20:00,51.0,26.3,29.98,NNE,22,5.0,5.0,38,0.00,,,0.00,Wunderground v.1.15,2013-05-11 20:20:00,
2013-05-11 15:25:00,51.4,25.3,29.98,NW,322,5.0,9.0,36,0.00,,,0.00,Wunderground v.1.15,2013-05-11 20:25:00,
2013-05-11 15:31:00,51.6,27.4,29.98,WNW,295,5.0,5.0,39,0.00,,,0.00,Wunderground v.1.15,2013-05-11 20:31:00,
2013-05-11 15:36:00,51.8,25.0,29.99,NNW,344,4.0,7.0,35,0.00,,,0.00,Wunderground v.1.15,2013-05-11 20:36:00,
2013-05-11 15:41:00,51.8,27.0,29.98,North,355,4.0,5.0,38,0.00,,,0.00,Wunderground v.1.15,2013-05-11 20:41:00,
2013-05-11 15:46:00,51.7,27.5,29.98,NW,318,4.0,7.0,39,0.00,,,0.00,Wunderground v.1.15,2013-05-11 20:46:00,
2013-05-11 15:51:00,52.5,26.9,29.98,NNW,331,4.0,4.0,37,0.00,,,0.00,Wunderground v.1.15,2013-05-11 20:51:00,
2013-05-11 15:56:00,52.4,25.5,29.98,NW,320,3.0,5.0,35,0.00,,,0.00,Wunderground v.1.15,2013-05-11 20:56:00,
2013-05-11 16:01:00,52.1,25.3,29.98,NW,311,3.0,3.0,35,0.00,,,0.00,Wunderground v.1.15,2013-05-11 21:01:00,
2013-05-11 16:06:00,51.2,25.8,29.98,NNW,347,3.0,8.0,37,0.00,,,0.00,Wunderground v.1.15,2013-05-11 21:06:00,
2013-05-11 16:11:00,51.4,25.3,29.98,NNW,331,4.0,7.0,36,0.00,,,0.00,Wunderground v.1.15,2013-05-11 21:11:00,
2013-05-11 16:16:00,51.8,25.7,29.98,NNE,20,4.0,7.0,36,0.00,,,0.00,Wunderground v.1.15,2013-05-11 21:16:00,
2013-05-11 16:22:00,51.3,24.5,29.98,NW,313,4.0,4.0,35,0.00,,,0.00,Wunderground v.1.15,2013-05-11 21:22:00,
2013-05-11 16:27:00,51.0,26.9,29.98,NW,309,5.0,9.0,39,0.00,,,0.00,Wunderground v.1.15,2013-05-11 21:27:00,
2013-05-11 16:32:00,50.5,24.5,29.99,NNW,347,5.0,5.0,36,0.00,,,0.00,Wunderground v.1.15,2013-05-11 21:32:00,
2013-05-11 16:37:00,50.8,26.1,29.98,WNW,292,4.0,8.0,38,0.00,,,0.00,Wunderground v.1.15,2013-05-11 21:37:00,
2013-05-11 16:42:00,50.9,25.5,29.98,NNE,32,4.0,6.0,37,0.00,,,0.00,Wunderground v.1.15,2013-05-11 21:42:00,
2013-05-11 16:48:00,50.9,24.9,29.98,NE,41,4.0,6.0,36,0.00,,,0.00,Wunderground v.1.15,2013-05-11 21:48:00,
2013-05-11 16:53:00,50.5,24.5,29.98,North,8,3.0,4.0,36,0.00,,,0.00,Wunderground v.1.15,2013-05-11 21:53:00,
2013-05-11 16:58:00,50.6,25.3,29.98,NNW,340,3.0,6.0,37,0.00,,,0.00,Wunderground v.1.15,2013-05-11 21:58:00,
2013-05-11 17:03:00,51.1,24.4,29.98,NNE,25,4.0,4.0,35,0.00,,,0.00,Wunderground v.1.15,2013-05-11 22:03:00,
2013-05-11 17:08:00,50.8,24.8,29.98,NNW,347,3.0,5.0,36,0.00,,,0.00,Wunderground v.1.15,2013-05-11 22:08:00,
2013-05-11 17:13:00,50.5,24.5,29.98,North,3,3.0,3.0,36,0.00,,,0.00,Wunderground v.1.15,2013-05-11 22:13:00,
2013-05-11 17:19:00,50.9,26.2,29.98,WNW,298,4.0,7.0,38,0.00,,,0.00,Wunderground v.1.15,2013-05-11 22:19:00,
2013-05-11 17:24:00,51.4,24.6,29.99,NW,312,4.0,7.0,35,0.00,,,0.00,Wunderground v.1.15,2013-05-11 22:24:00,
2013-05-11 17:29:00,50.6,24.6,29.99,NW,307,4.0,7.0,36,0.00,,,0.00,Wunderground v.1.15,2013-05-11 22:29:00,
2013-05-11 17:34:00,50.5,24.5,29.99,NW,318,4.0,6.0,36,0.00,,,0.00,Wunderground v.1.15,2013-05-11 22:34:00,
2013-05-11 17:39:00,50.8,24.8,29.99,WNW,300,4.0,8.0,36,0.00,,,0.00,Wunderground v.1.15,2013-05-11 22:39:00,
2013-05-11 17:45:00,51.3,24.5,29.99,WNW,302,5.0,10.0,35,0.00,,,0.00,Wunderground v.1.15,2013-05-11 22:45:00,
2013-05-11 17:50:00,51.4,23.9,29.99,NW,307,5.0,5.0,34,0.00,,,0.00,Wunderground v.1.15,2013-05-11 22:50:00,
2013-05-11 17:55:00,51.7,25.6,29.99,North,351,5.0,10.0,36,0.00,,,0.00,Wunderground v.1.15,2013-05-11 22:55:00,
2013-05-11 18:00:00,52.1,25.9,29.98,NW,320,5.0,5.0,36,0.00,,,0.00,Wunderground v.1.15,2013-05-11 23:00:00,
2013-05-11 18:05:00,51.8,25.0,29.99,NW,313,4.0,6.0,35,0.00,,,0.00,Wunderground v.1.15,2013-05-11 23:05:00,
2013-05-11 18:11:00,51.6,24.8,29.99,NW,304,4.0,6.0,35,0.00,,,0.00,Wunderground v.1.15,2013-05-11 23:11:00,
2013-05-11 18:16:00,51.4,23.2,29.99,WNW,297,5.0,7.0,33,0.00,,,0.00,Wunderground v.1.15,2013-05-11 23:16:00,
2013-05-11 18:21:00,50.9,23.5,29.99,NW,308,6.0,9.0,34,0.00,,,0.00,Wunderground v.1.15,2013-05-11 23:21:00,
2013-05-11 18:26:00,50.5,25.2,29.99,NW,313,6.0,10.0,37,0.00,,,0.00,Wunderground v.1.15,2013-05-11 23:26:00,
2013-05-11 18:31:00,50.2,24.2,29.99,WNW,299,5.0,5.0,36,0.00,,,0.00,Wunderground v.1.15,2013-05-11 23:31:00,
2013-05-11 18:37:00,50.2,24.9,29.99,NNW,335,4.0,5.0,37,0.00,,,0.00,Wunderground v.1.15,2013-05-11 23:37:00,
2013-05-11 18:42:00,50.5,24.5,29.99,NW,315,3.0,4.0,36,0.00,,,0.00,Wunderground v.1.15,2013-05-11 23:42:00,
2013-05-11 18:47:00,50.7,23.3,29.99,NW,312,4.0,8.0,34,0.00,,,0.00,Wunderground v.1.15,2013-05-11 23:47:00,
2013-05-11 18:52:00,50.7,25.3,29.99,NNW,336,5.0,5.0,37,0.00,,,0.00,Wunderground v.1.15,2013-05-11 23:52:00,
2013-05-11 18:57:00,51.0,23.6,29.99,North,356,4.0,6.0,34,0.00,,,0.00,Wunderground v.1.15,2013-05-11 23:57:00,
2013-05-11 19:03:00,50.3,23.0,29.99,WNW,302,4.0,10.0,34,0.00,,,0.00,Wunderground v.1.15,2013-05-12 00:03:00,
2013-05-11 19:08:00,49.7,23.1,29.99,NW,319,4.0,10.0,35,0.00,,,0.00,Wunderground v.1.15,2013-05-12 00:08:00,
2013-05-11 19:13:00,49.3,23.4,29.99,WNW,287,4.0,4.0,36,0.00,,,0.00,Wunderground v.1.15,2013-05-12 00:13:00,
2013-05-11 19:18:00,49.2,23.4,29.99,WNW,297,4.0,6.0,36,0.00,,,0.00,Wunderground v.1.15,2013-05-12 00:18:00,
2013-05-11 19:23:00,49.1,23.3,29.99,NW,325,4.0,4.0,36,0.00,,,0.00,Wunderground v.1.15,2013-05-12 00:23:00,
2013-05-11 19:28:00,49.1,24.6,29.99,NW,316,3.0,5.0,38,0.00,,,0.00,Wunderground v.1.15,2013-05-12 00:28:00,
2013-05-11 19:34:00,49.0,23.8,29.99,NNW,327,3.0,4.0,37,0.00,,,0.00,Wunderground v.1.15,2013-05-12 00:34:00,
2013-05-11 19:39:00,49.0,23.8,29.99,WNW,298,4.0,8.0,37,0.00,,,0.00,Wunderground v.1.15,2013-05-12 00:39:00,
2013-05-11 19:44:00,49.0,23.8,29.99,NW,319,4.0,7.0,37,0.00,,,0.00,Wunderground v.1.15,2013-05-12 00:44:00,
2013-05-11 19:49:00,48.9,23.7,30.00,NW,314,4.0,7.0,37,0.00,,,0.00,Wunderground v.1.15,2013-05-12 00:49:00,
2013-05-11 19:54:00,48.7,23.6,29.99,NNW,332,3.0,5.0,37,0.00,,,0.00,Wunderground v.1.15,2013-05-12 00:54:00,
2013-05-11 19:59:00,48.4,23.3,30.00,NNW,344,3.0,3.0,37,0.00,,,0.00,Wunderground v.1.15,2013-05-12 00:59:00,
2013-05-11 20:04:00,48.1,24.3,30.00,North,353,2.0,4.0,39,0.00,,,0.00,Wunderground v.1.15,2013-05-12 01:04:00,
2013-05-11 20:09:00,47.9,24.1,30.00,NW,313,2.0,2.0,39,0.00,,,0.00,Wunderground v.1.15,2013-05-12 01:09:00,
2013-05-11 20:14:00,47.7,23.9,30.00,NNE,25,3.0,4.0,39,0.00,,,0.00,Wunderground v.1.15,2013-05-12 01:14:00,
2013-05-11 20:20:00,47.4,24.3,30.00,NW,304,2.0,3.0,40,0.00,,,0.00,Wunderground v.1.15,2013-05-12 01:20:00,
2013-05-11 20:25:00,47.3,24.2,30.00,NNE,32,2.0,5.0,40,0.00,,,0.00,Wunderground v.1.15,2013-05-12 01:25:00,
2013-05-11 20:30:00,47.0,25.1,30.00,NW,318,2.0,2.0,42,0.00,,,0.00,Wunderground v.1.15,2013-05-12 01:30:00,
2013-05-11 20:35:00,46.8,23.7,30.00,NNW,346,2.0,6.0,40,0.00,,,0.00,Wunderground v.1.15,2013-05-12 01:35:00,
2013-05-11 20:40:00,46.7,24.2,30.00,North,4,2.0,3.0,41,0.00,,,0.00,Wunderground v.1.15,2013-05-12 01:40:00,
2013-05-11 20:46:00,46.5,24.6,30.01,NNE,28,2.0,4.0,42,0.00,,,0.00,Wunderground v.1.15,2013-05-12 01:46:00,
2013-05-11 20:51:00,46.3,25.0,30.01,North,360,2.0,2.0,43,0.00,,,0.00,Wunderground v.1.15,2013-05-12 01:51:00,
2013-05-11 20:56:00,46.1,24.8,30.01,NNE,15,1.0,4.0,43,0.00,,,0.00,Wunderground v.1.15,2013-05-12 01:56:00,
2013-05-11 21:01:00,46.0,24.2,30.01,North,3,2.0,2.0,42,0.00,,,0.00,Wunderground v.1.15,2013-05-12 02:01:00,
2013-05-11 21:06:00,45.8,24.0,30.01,North,353,2.0,3.0,42,0.00,,,0.00,Wunderground v.1.15,2013-05-12 02:06:00,
2013-05-11 21:11:00,45.7,23.9,30.02,NNE,19,2.0,2.0,42,0.00,,,0.00,Wunderground v.1.15,2013-05-12 02:11:00,
2013-05-11 21:17:00,45.5,24.3,30.02,North,355,1.0,2.0,43,0.00,,,0.00,Wunderground v.1.15,2013-05-12 02:17:00,
2013-05-11 21:22:00,45.4,24.2,30.02,North,350,1.0,1.0,43,0.00,,,0.00,Wunderground v.1.15,2013-05-12 02:22:00,
2013-05-11 21:27:00,45.2,24.0,30.02,North,351,1.0,2.0,43,0.00,,,0.00,Wunderground v.1.15,2013-05-12 02:27:00,
2013-05-11 21:32:00,45.1,23.9,30.02,North,11,1.0,1.0,43,0.00,,,0.00,Wunderground v.1.15,2013-05-12 02:32:00,
2013-05-11 21:37:00,44.9,24.8,30.02,North,5,1.0,2.0,45,0.00,,,0.00,Wunderground v.1.15,2013-05-12 02:37:00,
2013-05-11 21:43:00,44.8,24.2,30.02,North,6,1.0,2.0,44,0.00,,,0.00,Wunderground v.1.15,2013-05-12 02:43:00,
2013-05-11 21:48:00,44.6,24.5,30.03,NE,39,1.0,2.0,45,0.00,,,0.00,Wunderground v.1.15,2013-05-12 02:48:00,
2013-05-11 21:53:00,44.4,24.4,30.03,North,351,1.0,1.0,45,0.00,,,0.00,Wunderground v.1.15,2013-05-12 02:53:00,
2013-05-11 21:58:00,44.3,24.8,30.03,NNE,19,1.0,1.0,46,0.00,,,0.00,Wunderground v.1.15,2013-05-12 02:58:00,
2013-05-11 22:03:00,44.1,24.1,30.03,North,6,1.0,2.0,45,0.00,,,0.00,Wunderground v.1.15,2013-05-12 03:03:00,
2013-05-11 22:09:00,44.0,24.5,30.03,NNE,23,1.0,2.0,46,0.00,,,0.00,Wunderground v.1.15,2013-05-12 03:09:00,
2013-05-11 22:14:00,43.8,24.3,30.03,NNE,19,1.0,2.0,46,0.00,,,0.00,Wunderground v.1.15,2013-05-12 03:14:00,
2013-05-11 22:19:00,43.8,24.9,30.03,North,8,1.0,3.0,47,0.00,,,0.00,Wunderground v.1.15,2013-05-12 03:19:00,
2013-05-11 22:24:00,43.7,25.3,30.04,ENE,64,2.0,3.0,48,0.00,,,0.00,Wunderground v.1.15,2013-05-12 03:24:00,
2013-05-11 22:29:00,43.5,25.1,30.04,NNE,18,2.0,3.0,48,0.00,,,0.00,Wunderground v.1.15,2013-05-12 03:29:00,
2013-05-11 22:35:00,43.4,25.0,30.04,ENE,63,2.0,3.0,48,0.00,,,0.00,Wunderground v.1.15,2013-05-12 03:35:00,
2013-05-11 22:40:00,43.2,25.3,30.04,North,8,2.0,2.0,49,0.00,,,0.00,Wunderground v.1.15,2013-05-12 03:40:00,
2013-05-11 22:45:00,43.1,25.2,30.04,NNE,21,1.0,2.0,49,0.00,,,0.00,Wunderground v.1.15,2013-05-12 03:45:00,
2013-05-11 22:50:00,42.9,25.5,30.04,ENE,58,1.0,1.0,50,0.00,,,0.00,Wunderground v.1.15,2013-05-12 03:50:00,
2013-05-11 22:55:00,42.6,25.7,30.04,ENE,58,1.0,1.0,51,0.00,,,0.00,Wunderground v.1.15,2013-05-12 03:55:00,
2013-05-11 23:01:00,42.3,25.9,30.04,ENE,58,0.0,1.0,52,0.00,,,0.00,Wunderground v.1.15,2013-05-12 04:01:00,
2013-05-11 23:03:00,42.2,25.8,30.04,ENE,58,0.0,1.0,52,0.00,,,0.00,Wunderground v.1.15,2013-05-12 04:03:00,
2013-05-11 23:04:00,42.2,25.8,30.04,ENE,58,0.0,1.0,52,0.00,,,0.00,Wunderground v.1.15,2013-05-12 04:04:00,
2013-05-11 23:05:00,42.1,25.3,30.04,ENE,58,0.0,1.0,51,0.00,,,0.00,Wunderground v.1.15,2013-05-12 04:05:00,
2013-05-11 23:10:00,41.8,26.4,30.04,ENE,58,0.0,1.0,54,0.00,,,0.00,Wunderground v.1.15,2013-05-12 04:10:00,
2013-05-11 23:15:00,41.5,26.5,30.04,ENE,58,0.0,1.0,55,0.00,,,0.00,Wunderground v.1.15,2013-05-12 04:15:00,
2013-05-11 23:17:00,41.4,26.4,30.04,ENE,58,0.0,1.0,55,0.00,,,0.00,Wunderground v.1.15,2013-05-12 04:17:00,
2013-05-11 23:23:00,41.1,26.1,30.05,ENE,58,0.0,1.0,55,0.00,,,0.00,Wunderground v.1.15,2013-05-12 04:23:00,
2013-05-11 23:28:00,40.9,26.4,30.04,ENE,58,0.0,1.0,56,0.00,,,0.00,Wunderground v.1.15,2013-05-12 04:28:00,
2013-05-11 23:33:00,40.6,26.1,30.05,ENE,58,0.0,1.0,56,0.00,,,0.00,Wunderground v.1.15,2013-05-12 04:33:00,
2013-05-11 23:38:00,40.3,25.4,30.05,ENE,58,0.0,1.0,55,0.00,,,0.00,Wunderground v.1.15,2013-05-12 04:38:00,
2013-05-11 23:43:00,40.0,25.1,30.05,ENE,58,0.0,1.0,55,0.00,,,0.00,Wunderground v.1.15,2013-05-12 04:43:00,
2013-05-11 23:49:00,39.7,25.3,30.05,ENE,58,0.0,1.0,56,0.00,,,0.00,Wunderground v.1.15,2013-05-12 04:49:00,
2013-05-11 23:54:00,39.6,26.4,30.05,ENE,58,0.0,1.0,59,0.00,,,0.00,Wunderground v.1.15,2013-05-12 04:54:00,
2013-05-11 23:59:00,39.3,26.2,30.05,ENE,58,0.0,1.0,59,0.00,,,0.00,Wunderground v.1.15,2013-05-12 04:59:00,